createdAt,value
2019-01-12T00:01:29.776Z,48.41
2019-01-12T00:03:56.173Z,48.28
2019-01-12T00:06:23.359Z,48.66
2019-01-12T00:08:49.276Z,48.31
2019-01-12T00:11:15.233Z,48.09
2019-01-12T00:13:41.136Z,48.54
2019-01-12T00:16:07.392Z,48.39
2019-01-12T00:18:33.286Z,47.63
2019-01-12T00:20:59.193Z,48.45
2019-01-12T00:23:25.514Z,48.22
2019-01-12T00:25:51.768Z,48.48
2019-01-12T00:28:17.661Z,48.23
2019-01-12T00:30:43.568Z,48.74
2019-01-12T00:33:09.464Z,48.30
2019-01-12T00:35:35.357Z,48.62
2019-01-12T00:38:01.628Z,48.66
2019-01-12T00:40:27.522Z,47.45
2019-01-12T00:42:53.406Z,48.36
2019-01-12T00:45:19.308Z,48.15
2019-01-12T00:47:45.234Z,48.22
2019-01-12T00:50:12.427Z,48.29
2019-01-12T00:52:38.338Z,48.07
2019-01-12T00:55:04.747Z,47.82
2019-01-12T00:57:30.636Z,48.34
2019-01-12T00:59:56.546Z,47.73
2019-01-12T01:02:24.728Z,47.89
2019-01-12T01:04:50.686Z,48.45
2019-01-12T01:07:16.627Z,48.37
2019-01-12T01:09:42.572Z,47.84
2019-01-12T01:12:08.466Z,47.96
2019-01-12T01:14:34.407Z,47.96
2019-01-12T01:17:00.310Z,48.17
2019-01-12T01:19:26.247Z,48.13
2019-01-12T01:21:54.122Z,48.04
2019-01-12T01:24:19.951Z,48.07
2019-01-12T01:26:45.888Z,48.23
2019-01-12T01:29:12.166Z,48.42
2019-01-12T01:31:38.439Z,47.94
2019-01-12T01:34:04.333Z,47.79
2019-01-12T01:36:30.283Z,46.85
2019-01-12T01:38:56.554Z,48.50
2019-01-12T01:41:24.998Z,47.99
2019-01-12T01:43:50.905Z,48.50
2019-01-12T01:46:16.830Z,48.33
2019-01-12T01:48:42.744Z,48.25
2019-01-12T01:51:08.642Z,48.36
2019-01-12T01:53:34.576Z,48.34
2019-01-12T01:56:00.476Z,47.87
2019-01-12T01:58:26.422Z,47.86
2019-01-12T02:00:52.641Z,48.40
2019-01-12T02:03:18.557Z,48.14
2019-01-12T02:05:44.598Z,48.34
2019-01-12T02:08:10.900Z,48.01
2019-01-12T02:10:39.827Z,48.03
2019-01-12T02:13:05.767Z,48.12
2019-01-12T02:15:31.666Z,48.01
2019-01-12T02:17:57.570Z,48.41
2019-01-12T02:20:23.481Z,48.30
2019-01-12T02:22:49.397Z,47.89
2019-01-12T02:25:15.303Z,48.47
2019-01-12T02:27:41.192Z,48.41
2019-01-12T02:30:09.085Z,48.27
2019-01-12T02:32:37.797Z,48.57
2019-01-12T02:35:06.751Z,48.19
2019-01-12T02:37:33.156Z,48.25
2019-01-12T02:39:59.092Z,48.19
2019-01-12T02:42:24.991Z,48.42
2019-01-12T02:44:50.945Z,48.25
2019-01-12T02:47:16.852Z,48.01
2019-01-12T02:49:42.752Z,48.05
2019-01-12T02:52:08.652Z,48.23
2019-01-12T02:54:34.560Z,47.51
2019-01-12T02:57:00.458Z,47.72
2019-01-12T02:59:26.369Z,48.25
2019-01-12T03:01:54.292Z,48.04
2019-01-12T03:04:20.207Z,47.99
2019-01-12T03:06:46.164Z,47.90
2019-01-12T03:09:12.413Z,47.84
2019-01-12T03:11:38.320Z,47.95
2019-01-12T03:14:04.252Z,47.40
2019-01-12T03:16:32.941Z,47.40
2019-01-12T03:18:58.883Z,47.91
2019-01-12T03:21:24.785Z,48.15
2019-01-12T03:23:53.667Z,47.99
2019-01-12T03:26:25.344Z,48.07
2019-01-12T03:28:51.262Z,47.99
2019-01-12T03:31:17.160Z,47.76
2019-01-12T03:33:43.101Z,47.78
2019-01-12T03:36:09.015Z,47.86
2019-01-12T03:38:37.728Z,48.07
2019-01-12T03:41:03.632Z,47.55
2019-01-12T03:43:29.583Z,47.93
2019-01-12T03:45:55.482Z,47.61
2019-01-12T03:48:21.389Z,47.76
2019-01-12T03:50:50.153Z,47.71
2019-01-12T03:53:16.090Z,47.61
2019-01-12T03:55:41.982Z,47.50
2019-01-12T03:58:07.889Z,47.32
2019-01-12T04:00:33.839Z,47.51
2019-01-12T04:03:00.112Z,47.50
2019-01-12T04:05:26.121Z,47.65
2019-01-12T04:07:54.935Z,47.04
2019-01-12T04:10:20.849Z,47.73
2019-01-12T04:12:46.754Z,47.41
2019-01-12T04:15:12.717Z,47.41
2019-01-12T04:17:42.044Z,47.02
2019-01-12T04:20:09.251Z,47.63
2019-01-12T04:22:38.208Z,47.63
2019-01-12T04:25:04.449Z,47.38
2019-01-12T04:27:31.285Z,47.82
2019-01-12T04:29:57.225Z,47.68
2019-01-12T04:32:23.118Z,47.88
2019-01-12T04:34:51.835Z,47.16
2019-01-12T04:37:20.787Z,47.58
2019-01-12T04:39:49.953Z,47.35
2019-01-12T04:42:19.059Z,47.34
2019-01-12T04:44:44.965Z,47.17
2019-01-12T04:47:12.199Z,47.61
2019-01-12T04:49:38.104Z,47.07
2019-01-12T04:52:04.009Z,47.09
2019-01-12T04:54:32.966Z,47.40
2019-01-12T04:56:58.911Z,47.47
2019-01-12T04:59:24.810Z,48.27
2019-01-12T05:01:54.111Z,46.89
2019-01-12T05:04:26.029Z,46.78
2019-01-12T05:06:55.431Z,46.88
2019-01-12T05:09:21.330Z,48.21
2019-01-12T05:11:50.698Z,47.32
2019-01-12T05:14:16.610Z,46.65
2019-01-12T05:16:45.286Z,47.54
2019-01-12T05:19:14.492Z,47.29
2019-01-12T05:21:40.446Z,47.25
2019-01-12T05:24:09.450Z,48.01
2019-01-12T05:26:38.423Z,47.68
2019-01-12T05:29:07.567Z,47.53
2019-01-12T05:31:36.471Z,47.45
2019-01-12T05:34:05.917Z,46.69
2019-01-12T05:36:34.627Z,48.29
2019-01-12T05:39:00.545Z,47.06
2019-01-12T05:41:26.457Z,47.46
2019-01-12T05:43:54.384Z,47.63
2019-01-12T05:46:23.301Z,47.76
2019-01-12T05:48:49.207Z,47.53
2019-01-12T05:51:15.105Z,47.14
2019-01-12T05:53:41.014Z,47.68
2019-01-12T05:56:06.949Z,47.55
2019-01-12T05:58:35.894Z,47.53
2019-01-12T06:01:04.815Z,47.12
2019-01-12T06:03:30.718Z,47.26
2019-01-12T06:06:00.071Z,47.63
2019-01-12T06:08:25.975Z,47.37
2019-01-12T06:10:54.641Z,47.18
2019-01-12T06:13:20.551Z,47.68
2019-01-12T06:15:46.469Z,47.22
2019-01-12T06:18:15.351Z,47.38
2019-01-12T06:20:44.041Z,47.27
2019-01-12T06:23:12.948Z,47.28
2019-01-12T06:25:41.751Z,46.71
2019-01-12T06:28:07.658Z,47.77
2019-01-12T06:30:33.583Z,47.44
2019-01-12T06:32:59.992Z,47.25
2019-01-12T06:35:26.357Z,47.69
2019-01-12T06:37:55.415Z,47.68
2019-01-12T06:40:21.313Z,47.25
2019-01-12T06:42:47.293Z,47.19
2019-01-12T06:45:14.235Z,47.17
2019-01-12T06:47:40.152Z,46.89
2019-01-12T06:50:07.348Z,47.24
2019-01-12T06:52:36.285Z,47.14
2019-01-12T06:55:06.855Z,46.79
2019-01-12T06:57:32.785Z,47.04
2019-01-12T07:00:03.246Z,46.79
2019-01-12T07:02:29.136Z,47.96
2019-01-12T07:04:55.078Z,46.96
2019-01-12T07:07:21.408Z,47.31
2019-01-12T07:09:47.355Z,46.91
2019-01-12T07:12:13.314Z,47.15
2019-01-12T07:14:39.204Z,47.35
2019-01-12T07:17:05.098Z,47.37
2019-01-12T07:19:31.416Z,47.16
2019-01-12T07:21:57.325Z,47.39
2019-01-12T07:24:23.233Z,47.25
2019-01-12T07:26:52.844Z,46.69
2019-01-12T07:29:18.761Z,47.13
2019-01-12T07:31:44.667Z,46.46
2019-01-12T07:34:10.854Z,47.12
2019-01-12T07:36:36.758Z,46.54
2019-01-12T07:39:04.924Z,46.34
2019-01-12T07:41:30.836Z,47.04
2019-01-12T07:43:56.749Z,46.17
2019-01-12T07:46:24.670Z,47.07
2019-01-12T07:48:50.592Z,46.47
2019-01-12T07:51:16.480Z,46.47
2019-01-12T07:53:42.428Z,47.63
2019-01-12T07:56:08.664Z,46.50
2019-01-12T07:58:34.871Z,46.57
2019-01-12T08:01:01.077Z,47.01
2019-01-12T08:03:26.969Z,46.30
2019-01-12T08:05:55.949Z,47.33
2019-01-12T08:08:21.892Z,46.92
2019-01-12T08:10:47.799Z,46.51
2019-01-12T08:13:13.687Z,47.29
2019-01-12T08:15:39.580Z,46.47
2019-01-12T08:18:08.684Z,46.49
2019-01-12T08:20:37.592Z,46.75
2019-01-12T08:23:06.585Z,46.75
2019-01-12T08:25:35.511Z,46.63
2019-01-12T08:28:01.932Z,46.26
2019-01-12T08:30:27.906Z,46.44
2019-01-12T08:32:53.793Z,46.09
2019-01-12T08:35:19.743Z,47.59
2019-01-12T08:37:45.685Z,46.30
2019-01-12T08:40:11.822Z,46.93
2019-01-12T08:42:37.827Z,46.44
2019-01-12T08:45:04.601Z,46.73
2019-01-12T08:47:30.938Z,45.99
2019-01-12T08:49:56.918Z,46.11
2019-01-12T08:52:24.845Z,46.42
2019-01-12T08:54:50.751Z,46.58
2019-01-12T08:57:16.657Z,46.29
2019-01-12T08:59:42.603Z,46.75
2019-01-12T09:02:08.469Z,46.66
2019-01-12T09:04:34.358Z,46.82
2019-01-12T09:07:00.274Z,46.47
2019-01-12T09:09:26.188Z,46.41
2019-01-12T09:11:54.830Z,46.41
2019-01-12T09:14:20.727Z,46.27
2019-01-12T09:16:49.645Z,46.96
2019-01-12T09:19:15.569Z,46.45
2019-01-12T09:21:41.466Z,46.47
2019-01-12T09:24:10.411Z,46.88
2019-01-12T09:26:36.344Z,46.44
2019-01-12T09:29:02.260Z,47.07
2019-01-12T09:31:31.222Z,46.80
2019-01-12T09:34:00.158Z,47.22
2019-01-12T09:36:37.824Z,46.91
2019-01-12T09:39:07.085Z,46.78
2019-01-12T09:41:33.073Z,46.86
2019-01-12T09:43:58.951Z,46.75
2019-01-12T09:46:24.853Z,46.76
2019-01-12T09:48:50.764Z,47.23
2019-01-12T09:51:19.925Z,47.29
2019-01-12T09:53:48.599Z,47.27
2019-01-12T09:56:18.123Z,48.04
2019-01-12T09:58:46.806Z,46.96
2019-01-12T10:01:12.731Z,47.27
2019-01-12T10:03:38.656Z,47.40
2019-01-12T10:06:04.547Z,47.62
2019-01-12T10:08:30.455Z,47.80
2019-01-12T10:10:56.349Z,47.29
2019-01-12T10:13:25.271Z,47.14
2019-01-12T10:15:51.200Z,47.76
2019-01-12T10:18:17.139Z,47.88
2019-01-12T10:20:46.299Z,47.61
2019-01-12T10:23:15.231Z,47.84
2019-01-12T10:25:41.186Z,48.34
2019-01-12T10:28:07.378Z,47.96
2019-01-12T10:30:33.268Z,48.27
2019-01-12T10:33:02.428Z,48.49
2019-01-12T10:35:28.370Z,47.48
2019-01-12T10:37:54.317Z,47.81
2019-01-12T10:40:20.225Z,47.93
2019-01-12T10:42:49.170Z,47.65
2019-01-12T10:45:19.176Z,47.89
2019-01-12T10:47:45.071Z,48.34
2019-01-12T10:50:12.778Z,48.15
2019-01-12T10:52:38.690Z,48.39
2019-01-12T10:55:04.899Z,48.50
2019-01-12T10:57:33.650Z,48.33
2019-01-12T11:00:04.753Z,48.40
2019-01-12T11:02:30.650Z,47.92
2019-01-12T11:04:56.545Z,48.63
2019-01-12T11:07:25.172Z,48.14
2019-01-12T11:09:51.075Z,48.35
2019-01-12T11:12:20.183Z,48.35
2019-01-12T11:14:49.071Z,48.50
2019-01-12T11:17:14.980Z,48.53
2019-01-12T11:19:40.914Z,48.71
2019-01-12T11:22:06.931Z,48.60
2019-01-12T11:24:32.856Z,48.50
2019-01-12T11:26:58.757Z,48.58
2019-01-12T11:29:24.658Z,48.55
2019-01-12T11:31:50.596Z,48.57
2019-01-12T11:34:19.256Z,48.48
2019-01-12T11:36:45.151Z,48.76
2019-01-12T11:39:11.052Z,48.86
2019-01-12T11:41:36.990Z,48.35
2019-01-12T11:44:02.989Z,48.48
2019-01-12T11:46:28.931Z,48.73
2019-01-12T11:48:54.821Z,48.09
2019-01-12T11:51:20.721Z,48.55
2019-01-12T11:53:46.954Z,48.30
2019-01-12T11:56:12.897Z,48.71
2019-01-12T11:58:38.774Z,48.67
2019-01-12T12:01:04.720Z,48.51
2019-01-12T12:03:30.623Z,49.03
2019-01-12T12:05:56.539Z,48.79
2019-01-12T12:08:22.822Z,48.56
2019-01-12T12:10:48.725Z,48.38
2019-01-12T12:13:14.637Z,48.83
2019-01-12T12:15:40.535Z,48.78
2019-01-12T12:18:06.439Z,48.90
2019-01-12T12:20:32.372Z,48.80
2019-01-12T12:23:01.034Z,48.72
2019-01-12T12:25:26.940Z,48.58
2019-01-12T12:27:58.893Z,48.45
2019-01-12T12:30:25.792Z,48.83
2019-01-12T12:32:51.738Z,48.42
2019-01-12T12:35:17.642Z,48.91
2019-01-12T12:37:46.571Z,48.49
2019-01-12T12:40:16.678Z,48.47
2019-01-12T12:42:42.957Z,48.01
2019-01-12T12:45:16.304Z,48.81
2019-01-12T12:47:44.995Z,47.63
2019-01-12T12:50:11.810Z,46.63
2019-01-12T12:52:37.855Z,47.56
2019-01-12T12:55:03.948Z,48.22
2019-01-12T12:57:32.976Z,46.92
2019-01-12T12:59:57.664Z,47.81
2019-01-12T13:02:26.450Z,47.70
2019-01-12T13:04:54.381Z,47.60
2019-01-12T13:07:20.333Z,47.72
2019-01-12T13:09:46.602Z,47.58
2019-01-12T13:12:12.550Z,47.53
2019-01-12T13:14:38.489Z,47.56
2019-01-12T13:17:07.380Z,47.60
2019-01-12T13:19:36.356Z,47.85
2019-01-12T13:22:02.496Z,47.92
2019-01-12T13:24:28.467Z,48.01
2019-01-12T13:26:57.979Z,48.18
2019-01-12T13:29:23.898Z,47.99
2019-01-12T13:31:49.824Z,48.32
2019-01-12T13:34:15.729Z,48.27
2019-01-12T13:36:44.388Z,48.10
2019-01-12T13:39:10.278Z,47.80
2019-01-12T13:41:36.576Z,48.07
2019-01-12T13:44:02.513Z,47.96
2019-01-12T13:46:28.394Z,48.19
2019-01-12T13:48:57.085Z,47.72
2019-01-12T13:51:26.195Z,47.99
2019-01-12T13:53:53.447Z,47.54
2019-01-12T13:56:19.673Z,48.30
2019-01-12T13:58:45.651Z,47.58
2019-01-12T14:01:14.527Z,48.13
2019-01-12T14:03:40.439Z,48.14
2019-01-12T14:06:06.347Z,47.76
2019-01-12T14:08:32.280Z,47.95
2019-01-12T14:11:00.978Z,47.68
2019-01-12T14:13:26.857Z,47.43
2019-01-12T14:15:55.997Z,47.13
2019-01-12T14:18:24.909Z,47.51
2019-01-12T14:20:54.293Z,47.96
2019-01-12T14:23:26.002Z,47.32
2019-01-12T14:25:51.923Z,47.63
2019-01-12T14:28:17.830Z,48.01
2019-01-12T14:30:43.751Z,47.51
2019-01-12T14:33:09.645Z,47.97
2019-01-12T14:35:35.583Z,47.61
2019-01-12T14:38:04.420Z,47.81
2019-01-12T14:40:30.367Z,48.20
2019-01-12T14:42:56.264Z,47.64
2019-01-12T14:45:29.083Z,47.96
2019-01-12T14:47:55.343Z,47.02
2019-01-12T14:50:21.286Z,47.67
2019-01-12T14:52:47.206Z,47.77
2019-01-12T14:55:17.328Z,47.78
2019-01-12T14:57:43.274Z,47.90
2019-01-12T15:00:14.299Z,48.21
2019-01-12T15:02:40.196Z,47.53
2019-01-12T15:05:07.821Z,48.29
2019-01-12T15:07:33.713Z,47.82
2019-01-12T15:09:59.688Z,47.71
2019-01-12T15:12:25.594Z,47.81
2019-01-12T15:14:53.488Z,48.25
2019-01-12T15:17:19.394Z,47.94
2019-01-12T15:19:48.046Z,47.72
2019-01-12T15:22:16.387Z,47.05
2019-01-12T15:24:42.984Z,47.20
2019-01-12T15:27:09.091Z,47.24
2019-01-12T15:29:35.449Z,47.76
2019-01-12T15:32:06.562Z,47.29
2019-01-12T15:34:32.893Z,47.89
2019-01-12T15:37:02.637Z,47.03
2019-01-12T15:39:28.983Z,47.45
2019-01-12T15:41:55.027Z,47.30
2019-01-12T15:44:20.911Z,47.67
2019-01-12T15:46:47.127Z,47.47
2019-01-12T15:49:13.035Z,47.42
2019-01-12T15:51:39.383Z,47.32
2019-01-12T15:54:05.787Z,47.24
2019-01-12T15:56:31.801Z,47.37
2019-01-12T15:58:57.758Z,47.83
2019-01-12T16:01:23.656Z,47.12
2019-01-12T16:03:49.546Z,47.69
2019-01-12T16:06:15.568Z,47.34
2019-01-12T16:08:41.485Z,47.21
2019-01-12T16:11:07.375Z,47.99
2019-01-12T16:13:33.276Z,46.97
2019-01-12T16:15:59.540Z,46.96
2019-01-12T16:18:26.666Z,47.19
2019-01-12T16:20:55.541Z,47.66
2019-01-12T16:23:21.494Z,47.22
2019-01-12T16:25:47.395Z,47.71
2019-01-12T16:28:23.037Z,47.61
2019-01-12T16:30:44.217Z,47.09
2019-01-12T16:33:10.125Z,47.43
2019-01-12T16:35:36.021Z,47.65
2019-01-12T16:38:01.914Z,46.92
2019-01-12T16:40:28.212Z,47.35
2019-01-12T16:42:54.116Z,47.29
2019-01-12T16:45:20.075Z,47.32
2019-01-12T16:47:46.357Z,47.78
2019-01-12T16:50:12.266Z,47.35
2019-01-12T16:52:38.167Z,48.24
2019-01-12T16:55:05.565Z,47.47
2019-01-12T16:57:31.541Z,47.42
2019-01-12T16:59:57.836Z,47.53
2019-01-12T17:02:23.776Z,48.13
2019-01-12T17:04:49.836Z,47.32
2019-01-12T17:07:15.775Z,47.47
2019-01-12T17:09:41.691Z,47.89
2019-01-12T17:12:07.600Z,48.23
2019-01-12T17:14:33.810Z,48.09
2019-01-12T17:16:59.715Z,48.09
2019-01-12T17:19:28.900Z,48.00
2019-01-12T17:21:57.571Z,47.77
2019-01-12T17:24:23.473Z,48.28
2019-01-12T17:26:54.945Z,48.04
2019-01-12T17:29:20.897Z,48.21
2019-01-12T17:31:47.744Z,47.45
2019-01-12T17:34:13.733Z,47.97
2019-01-12T17:36:39.618Z,47.79
2019-01-12T17:39:08.133Z,47.89
2019-01-12T17:41:37.172Z,47.54
2019-01-12T17:44:03.175Z,48.04
2019-01-12T17:46:29.089Z,47.89
2019-01-12T17:48:55.133Z,47.91
2019-01-12T17:51:21.023Z,48.09
2019-01-12T17:53:47.324Z,48.32
2019-01-12T17:56:13.432Z,47.89
2019-01-12T17:58:44.345Z,48.07
2019-01-12T18:01:10.113Z,47.63
2019-01-12T18:03:35.991Z,48.03
2019-01-12T18:06:01.936Z,48.08
2019-01-12T18:08:27.849Z,47.41
2019-01-12T18:10:53.736Z,48.01
2019-01-12T18:13:19.966Z,48.21
2019-01-12T18:15:45.883Z,48.29
2019-01-12T18:18:11.821Z,48.58
2019-01-12T18:20:37.719Z,48.10
2019-01-12T18:23:03.816Z,48.85
2019-01-12T18:25:29.724Z,48.55
2019-01-12T18:27:55.620Z,48.76
2019-01-12T18:30:23.030Z,47.95
2019-01-12T18:32:48.926Z,48.27
2019-01-12T18:35:14.856Z,48.47
2019-01-12T18:37:40.755Z,47.90
2019-01-12T18:40:08.308Z,48.55
2019-01-12T18:42:34.518Z,48.33
2019-01-12T18:45:00.424Z,48.27
2019-01-12T18:47:26.323Z,48.42
2019-01-12T18:49:55.262Z,48.69
2019-01-12T18:52:21.163Z,47.55
2019-01-12T18:54:47.125Z,47.72
2019-01-12T18:57:13.058Z,47.48
2019-01-12T18:59:39.187Z,48.60
2019-01-12T19:02:08.167Z,47.42
2019-01-12T19:04:34.517Z,48.55
2019-01-12T19:07:00.422Z,48.38
2019-01-12T19:09:26.371Z,48.66
2019-01-12T19:11:56.437Z,48.32
2019-01-12T19:14:22.835Z,47.93
2019-01-12T19:16:48.737Z,48.27
2019-01-12T19:19:14.691Z,47.55
2019-01-12T19:21:40.641Z,48.58
2019-01-12T19:24:06.570Z,48.72
2019-01-12T19:26:32.479Z,48.68
2019-01-12T19:28:58.533Z,47.99
2019-01-12T19:31:24.514Z,47.95
2019-01-12T19:33:50.520Z,48.31
2019-01-12T19:36:16.475Z,47.53
2019-01-12T19:38:42.396Z,47.58
2019-01-12T19:41:11.761Z,48.25
2019-01-12T19:43:37.668Z,48.83
2019-01-12T19:46:03.599Z,48.35
2019-01-12T19:48:29.487Z,47.91
2019-01-12T19:50:55.866Z,48.58
2019-01-12T19:53:21.781Z,48.47
2019-01-12T19:55:47.867Z,48.60
2019-01-12T19:58:15.906Z,48.18
2019-01-12T20:00:42.782Z,48.84
2019-01-12T20:03:09.142Z,48.35
2019-01-12T20:05:35.741Z,48.55
2019-01-12T20:08:02.110Z,48.61
2019-01-12T20:10:28.205Z,48.58
2019-01-12T20:12:54.123Z,48.63
2019-01-12T20:15:21.515Z,48.40
2019-01-12T20:17:48.720Z,48.35
2019-01-12T20:20:14.912Z,48.96
2019-01-12T20:22:41.101Z,49.17
2019-01-12T20:25:11.338Z,48.46
2019-01-12T20:27:37.244Z,48.82
2019-01-12T20:30:05.222Z,48.86
2019-01-12T20:32:38.834Z,49.05
2019-01-12T20:35:09.563Z,48.99
2019-01-12T20:37:43.797Z,48.86
2019-01-12T20:40:12.012Z,48.91
2019-01-12T20:42:42.844Z,49.17
2019-01-12T20:45:28.805Z,48.76
2019-01-12T20:48:09.067Z,48.94
2019-01-12T20:50:35.691Z,49.04
2019-01-12T20:53:12.588Z,48.76
2019-01-12T20:55:40.410Z,49.25
2019-01-12T20:58:11.055Z,48.71
2019-01-12T21:00:55.496Z,48.79
2019-01-12T21:03:26.105Z,49.20
2019-01-12T21:05:53.921Z,49.01
2019-01-12T21:08:28.109Z,49.11
2019-01-12T21:11:14.474Z,49.06
2019-01-12T21:13:42.315Z,49.01
2019-01-12T21:16:10.564Z,49.02
2019-01-12T21:18:36.545Z,49.22
2019-01-12T21:21:02.530Z,49.49
2019-01-12T21:23:28.470Z,49.23
2019-01-12T21:25:57.418Z,49.03
2019-01-12T21:28:23.358Z,49.51
2019-01-12T21:30:52.341Z,49.05
2019-01-12T21:33:21.655Z,49.36
2019-01-12T21:35:47.580Z,49.50
2019-01-12T21:38:13.513Z,49.05
2019-01-12T21:40:42.325Z,49.35
2019-01-12T21:43:08.260Z,49.34
2019-01-12T21:45:37.768Z,49.28
2019-01-12T21:48:03.678Z,49.27
2019-01-12T21:50:29.607Z,49.38
2019-01-12T21:52:55.894Z,49.45
2019-01-12T21:55:22.355Z,49.70
2019-01-12T21:57:51.493Z,49.48
2019-01-12T22:00:17.443Z,49.61
2019-01-12T22:02:46.417Z,49.53
2019-01-12T22:05:15.365Z,49.36
2019-01-12T22:07:44.384Z,49.45
2019-01-12T22:10:19.094Z,49.22
2019-01-12T22:12:42.176Z,49.56
2019-01-12T22:15:09.490Z,49.45
2019-01-12T22:17:35.446Z,49.69
2019-01-12T22:20:06.064Z,49.84
2019-01-12T22:22:31.993Z,49.58
2019-01-12T22:24:57.925Z,49.72
2019-01-12T22:27:23.837Z,49.89
2019-01-12T22:29:50.212Z,49.77
2019-01-12T22:32:19.281Z,49.66
2019-01-12T22:34:45.223Z,49.38
2019-01-12T22:37:11.114Z,49.55
2019-01-12T22:39:37.047Z,49.97
2019-01-12T22:42:02.982Z,49.75
2019-01-12T22:44:32.332Z,49.55
2019-01-12T22:46:58.245Z,50.10
2019-01-12T22:49:24.159Z,49.05
2019-01-12T22:51:50.060Z,49.67
2019-01-12T22:54:15.963Z,49.31
2019-01-12T22:56:44.766Z,49.68
2019-01-12T22:59:10.667Z,49.81
2019-01-12T23:01:38.803Z,49.71
2019-01-12T23:04:05.340Z,49.75
2019-01-12T23:06:31.238Z,49.98
2019-01-12T23:09:00.055Z,49.50
2019-01-12T23:11:29.311Z,50.04
2019-01-12T23:13:55.213Z,49.80
2019-01-12T23:16:21.130Z,49.66
2019-01-12T23:18:47.064Z,49.83
2019-01-12T23:21:12.985Z,49.56
2019-01-12T23:23:38.930Z,49.71
2019-01-12T23:26:07.726Z,49.79
2019-01-12T23:28:34.002Z,50.12
2019-01-12T23:31:00.254Z,49.52
2019-01-12T23:33:26.142Z,49.76
2019-01-12T23:35:53.285Z,49.82
2019-01-12T23:38:19.142Z,49.72
2019-01-12T23:40:45.112Z,49.90
2019-01-12T23:43:11.019Z,50.09
2019-01-12T23:45:36.915Z,49.79
2019-01-12T23:48:02.827Z,50.27
2019-01-12T23:50:28.724Z,49.76
2019-01-12T23:52:57.836Z,49.93
2019-01-12T23:55:23.752Z,50.04
2019-01-12T23:57:55.793Z,49.78
